Time;durP1;ratioP1;P1;durP2;ratioP2;P2;SDS_P1;SDS_P2;PMS_P1;PMS_P2;Temp;Humidity;BMP_temperature;BMP_pressure;BME280_temperature;BME280_humidity;BME280_pressure;Samples;Min_cycle;Max_cycle;Signal;HPM_P1;HPM_P2
2023/01/11 00:00:53;;;;;;;4.49;4.12;;;;;;;-12.51;50.81;103175.75;465467;114;922655;-73
2023/01/11 00:01:56;;;;;;;5.08;3.96;;;;;;;-12.52;50.87;103175.78;462289;114;922507;-74
2023/01/11 00:03:01;;;;;;;4.65;4.23;;;;;;;-12.53;50.77;103174.90;462398;114;922777;-73
2023/01/11 00:04:04;;;;;;;3.52;3.20;;;;;;;-12.53;50.77;103184.53;463206;113;922494;-73
2023/01/11 00:05:08;;;;;;;4.27;3.87;;;;;;;-12.54;50.85;103178.40;465120;114;922459;-74
2023/01/11 00:06:11;;;;;;;4.56;4.13;;;;;;;-12.56;50.87;103179.27;465383;113;923059;-72
2023/01/11 00:07:14;;;;;;;3.96;3.66;;;;;;;-12.57;50.87;103172.30;465467;114;922682;-74
2023/01/11 00:08:18;;;;;;;4.19;3.83;;;;;;;-12.58;50.91;103163.53;465011;114;922519;-76
2023/01/11 00:09:21;;;;;;;4.35;3.62;;;;;;;-12.59;50.90;103164.41;465369;113;922578;-73
2023/01/11 00:10:24;;;;;;;4.52;3.91;;;;;;;-12.61;50.86;103166.16;464476;114;922487;-74
2023/01/11 00:11:27;;;;;;;3.27;2.98;;;;;;;-12.62;50.76;103172.28;464097;114;922531;-74
2023/01/11 00:12:30;;;;;;;3.54;3.24;;;;;;;-12.62;50.74;103166.18;464085;114;922882;-73
2023/01/11 00:13:33;;;;;;;4.08;3.72;;;;;;;-12.64;50.85;103168.80;463749;114;922482;-73
2023/01/11 00:14:36;;;;;;;4.19;3.81;;;;;;;-12.65;50.87;103161.80;463093;114;930510;-73
2023/01/11 00:15:39;;;;;;;4.58;4.18;;;;;;;-12.66;50.84;103165.30;464933;114;922507;-74
2023/01/11 00:16:43;;;;;;;4.19;3.79;;;;;;;-12.67;50.77;103166.17;463146;114;923106;-73
2023/01/11 00:17:46;;;;;;;4.17;3.25;;;;;;;-12.68;50.76;103165.29;463016;114;922843;-74
2023/01/11 00:18:49;;;;;;;4.30;3.93;;;;;;;-12.68;50.93;103173.17;455784;116;923267;-73
2023/01/11 00:19:52;;;;;;;4.20;3.86;;;;;;;-12.70;50.77;103163.56;458181;114;922438;-74
2023/01/11 00:20:55;;;;;;;4.28;3.83;;;;;;;-12.69;50.82;103162.69;454123;116;922982;-74
2023/01/11 00:21:58;;;;;;;3.85;3.52;;;;;;;-12.69;50.86;103160.94;454408;114;922607;-74
2023/01/11 00:23:01;;;;;;;5.18;3.88;;;;;;;-12.68;50.99;103161.81;463158;114;922649;-72
2023/01/11 00:24:05;;;;;;;3.77;3.47;;;;;;;-12.69;50.97;103160.06;462017;114;922417;-71
2023/01/11 00:25:08;;;;;;;4.59;4.16;;;;;;;-12.68;50.95;103161.81;457863;113;922493;-73
2023/01/11 00:26:12;;;;;;;5.96;4.03;;;;;;;-12.70;50.91;103169.70;460784;114;930583;-73
2023/01/11 00:27:15;;;;;;;4.22;3.83;;;;;;;-12.70;50.83;103166.19;461243;115;922572;-73
2023/01/11 00:28:19;;;;;;;4.92;4.12;;;;;;;-12.70;50.85;103166.19;460956;114;922460;-75
2023/01/11 00:29:22;;;;;;;4.36;3.79;;;;;;;-12.69;50.95;103165.31;460718;115;922559;-75
2023/01/11 00:30:25;;;;;;;3.97;3.67;;;;;;;-12.70;50.82;103163.56;457367;116;922912;-73
2023/01/11 00:31:28;;;;;;;4.33;3.93;;;;;;;-12.72;50.95;103158.30;457385;114;922969;-72
2023/01/11 00:32:31;;;;;;;4.53;4.12;;;;;;;-12.70;50.96;103168.81;461104;114;922812;-74
2023/01/11 00:33:34;;;;;;;4.36;3.45;;;;;;;-12.71;50.88;103165.31;459427;114;922418;-72
2023/01/11 00:34:37;;;;;;;4.50;4.12;;;;;;;-12.70;50.85;103168.81;458710;115;922627;-75
2023/01/11 00:35:40;;;;;;;4.16;3.76;;;;;;;-12.71;50.99;103165.31;455964;114;922614;-72
2023/01/11 00:36:43;;;;;;;4.15;3.79;;;;;;;-12.71;51.00;103164.44;462715;114;923057;-73
2023/01/11 00:37:46;;;;;;;4.18;3.79;;;;;;;-12.71;50.90;103167.94;461697;115;922555;-73
2023/01/11 00:38:55;;;;;;;4.14;3.74;;;;;;;-12.71;51.00;103161.81;460597;114;922548;-73
2023/01/11 00:39:58;;;;;;;4.14;3.69;;;;;;;-12.72;51.00;103154.80;461648;114;922576;-72
2023/01/11 00:47:55;;;;;;;5.16;4.02;;;;;;;-12.73;51.02;103166.18;461496;114;922531;-74
2023/01/11 00:48:56;;;;;;;4.07;3.28;;;;;;;-12.76;51.21;103156.58;457216;116;922515;-73
2023/01/11 00:49:59;;;;;;;4.25;3.34;;;;;;;-12.76;51.08;103159.20;458186;114;922450;-71
2023/01/11 00:51:02;;;;;;;4.26;3.83;;;;;;;-12.77;51.12;103159.20;464884;113;922565;-72
2023/01/11 00:52:07;;;;;;;4.18;3.60;;;;;;;-12.77;51.32;103151.31;463985;114;922530;-74
2023/01/11 00:53:11;;;;;;;4.16;3.78;;;;;;;-12.77;51.19;103157.45;460661;114;922462;-73
2023/01/11 00:54:14;;;;;;;4.04;3.67;;;;;;;-12.78;51.19;103153.06;464835;114;922770;-73
2023/01/11 00:55:17;;;;;;;4.08;3.63;;;;;;;-12.77;51.30;103146.94;465241;113;922475;-74
2023/01/11 00:56:20;;;;;;;3.76;3.46;;;;;;;-12.77;51.21;103146.06;463112;114;922956;-74
2023/01/11 00:57:23;;;;;;;4.44;4.05;;;;;;;-12.76;51.31;103142.56;463144;114;922499;-72
2023/01/11 00:58:26;;;;;;;4.87;4.42;;;;;;;-12.76;51.29;103146.06;462044;114;922509;-73
2023/01/11 00:59:29;;;;;;;4.75;4.12;;;;;;;-12.76;51.20;103142.56;456144;116;922815;-73
2023/01/11 01:00:32;;;;;;;4.39;3.99;;;;;;;-12.76;51.31;103140.81;457487;114;923188;-72
2023/01/11 01:01:35;;;;;;;4.01;3.46;;;;;;;-12.75;51.22;103141.69;461229;114;922490;-72
2023/01/11 01:02:38;;;;;;;3.91;3.58;;;;;;;-12.75;51.38;103137.31;460410;114;922572;-73
2023/01/11 01:03:41;;;;;;;3.61;3.33;;;;;;;-12.73;51.27;103150.42;461698;114;922584;-73
2023/01/11 01:04:44;;;;;;;4.24;3.46;;;;;;;-12.71;51.42;103146.05;462833;114;922619;-73
2023/01/11 01:05:48;;;;;;;3.19;2.85;;;;;;;-12.71;51.43;103139.05;463067;114;923015;-74
2023/01/11 01:06:51;;;;;;;4.16;3.17;;;;;;;-12.69;51.40;103146.93;465430;114;922549;-73
2023/01/11 01:07:54;;;;;;;3.95;3.41;;;;;;;-12.69;51.38;103144.30;464408;114;922853;-73
2023/01/11 01:08:57;;;;;;;4.20;3.80;;;;;;;-12.71;51.26;103144.30;461251;115;922543;-73
2023/01/11 01:10:00;;;;;;;3.50;3.22;;;;;;;-12.69;51.28;103152.19;461194;114;922780;-75
2023/01/11 01:11:03;;;;;;;4.62;3.33;;;;;;;-12.70;51.29;103148.68;452720;116;922581;-73
2023/01/11 01:12:08;;;;;;;3.74;3.39;;;;;;;-12.69;51.31;103146.93;453916;114;922672;-73
2023/01/11 01:14:32;;;;;;;4.80;4.33;;;;;;;-12.64;51.41;103146.91;462713;114;922534;-72
2023/01/11 01:15:35;;;;;;;4.66;4.16;;;;;;;-12.62;51.53;103151.26;461163;114;922919;-73
2023/01/11 01:16:38;;;;;;;4.49;4.11;;;;;;;-12.61;51.50;103153.02;463172;113;922971;-74
2023/01/11 01:17:41;;;;;;;5.64;5.14;;;;;;;-12.61;51.35;103157.39;464070;114;923138;-72
2023/01/11 01:18:44;;;;;;;6.42;5.91;;;;;;;-12.62;51.32;103151.26;462046;114;922622;-73
2023/01/11 01:19:47;;;;;;;6.59;6.09;;;;;;;-12.62;51.33;103160.92;463149;114;922666;-75
2023/01/11 01:20:51;;;;;;;6.51;5.90;;;;;;;-12.64;51.39;103150.41;462189;114;922474;-72
2023/01/11 01:21:55;;;;;;;5.77;5.34;;;;;;;-12.63;51.51;103152.17;463890;114;922464;-73
2023/01/11 01:22:59;;;;;;;7.60;7.00;;;;;;;-12.60;51.55;103162.66;464517;114;923058;-73
2023/01/11 01:24:02;;;;;;;6.42;5.92;;;;;;;-12.59;51.59;103155.64;459509;114;922613;-73
2023/01/11 01:25:05;;;;;;;7.21;6.61;;;;;;;-12.58;51.45;103150.40;459757;115;922959;-73
2023/01/11 01:26:08;;;;;;;6.12;5.62;;;;;;;-12.56;51.56;103155.63;462031;114;922510;-73
2023/01/11 01:27:15;;;;;;;6.54;5.97;;;;;;;-12.55;51.55;103158.25;457612;113;930492;-72
2023/01/11 01:28:17;;;;;;;6.01;5.56;;;;;;;-12.56;51.40;103156.50;460990;114;922769;-72
2023/01/11 01:29:20;;;;;;;5.88;5.30;;;;;;;-12.55;51.35;103157.38;461982;114;922537;-73
2023/01/11 01:30:24;;;;;;;5.87;5.37;;;;;;;-12.55;51.49;103157.38;460973;113;922573;-73
2023/01/11 01:31:27;;;;;;;5.67;5.17;;;;;;;-12.57;51.39;103154.78;460720;114;922985;-74
2023/01/11 01:32:30;;;;;;;4.66;4.26;;;;;;;-12.55;51.51;103160.00;462257;114;922465;-71
2023/01/11 01:33:33;;;;;;;5.36;4.89;;;;;;;-12.55;51.41;103160.00;457884;115;922887;-74
2023/01/11 01:34:36;;;;;;;6.15;5.73;;;;;;;-12.56;51.49;103163.50;462853;114;923027;-73
2023/01/11 01:35:39;;;;;;;7.24;6.51;;;;;;;-12.57;51.45;103157.41;458738;114;930452;-72
2023/01/11 01:36:42;;;;;;;6.38;5.79;;;;;;;-12.56;51.40;103163.50;462398;114;922374;-74
2023/01/11 01:37:45;;;;;;;7.84;7.21;;;;;;;-12.55;51.44;103167.89;457772;114;922803;-74
2023/01/11 01:38:48;;;;;;;7.17;6.58;;;;;;;-12.56;51.54;103161.75;457776;115;922432;-72
2023/01/11 01:39:51;;;;;;;7.44;6.84;;;;;;;-12.54;51.45;103156.50;460771;114;922780;-73
2023/01/11 01:40:55;;;;;;;6.23;5.71;;;;;;;-12.55;51.61;103168.77;460640;114;922544;-71
2023/01/11 01:41:59;;;;;;;5.71;5.18;;;;;;;-12.54;51.61;103165.27;459958;114;922464;-73
2023/01/11 01:43:02;;;;;;;5.31;4.91;;;;;;;-12.54;51.48;103170.52;458072;114;922632;-72
2023/01/11 01:44:24;;;;;;;4.76;4.36;;;;;;;-12.55;51.58;103163.51;460894;114;930512;-72
2023/01/11 01:45:28;;;;;;;4.11;3.77;;;;;;;-12.54;51.48;103160.01;461266;114;922547;-75
2023/01/11 01:46:33;;;;;;;5.64;4.27;;;;;;;-12.53;51.50;103169.64;460593;114;922529;-74
2023/01/11 01:47:39;;;;;;;4.39;4.00;;;;;;;-12.53;51.63;103164.39;457639;114;922479;-72
2023/01/11 01:48:45;;;;;;;5.08;4.67;;;;;;;-12.53;51.54;103168.77;457485;114;922534;-72
2023/01/11 01:49:49;;;;;;;5.58;5.10;;;;;;;-12.53;51.67;103160.88;457104;115;922553;-74
2023/01/11 01:50:55;;;;;;;4.89;4.49;;;;;;;-12.53;51.55;103168.77;462642;114;922867;-73
2023/01/11 01:51:59;;;;;;;5.75;5.25;;;;;;;-12.53;51.53;103172.27;461460;114;930627;-71
2023/01/11 01:53:06;;;;;;;5.01;4.45;;;;;;;-12.53;51.53;103174.02;461520;114;922538;-74
2023/01/11 01:54:12;;;;;;;4.50;4.10;;;;;;;-12.54;51.62;103170.52;459809;114;922928;-73
2023/01/11 01:55:22;;;;;;;4.52;4.03;;;;;;;-12.55;51.50;103163.51;457194;114;922473;-73
2023/01/11 01:56:31;;;;;;;5.06;4.57;;;;;;;-12.55;51.55;103163.51;457209;113;922984;-73
2023/01/11 01:57:38;;;;;;;4.52;4.06;;;;;;;-12.55;51.58;103157.38;458181;114;922713;-74
2023/01/11 01:58:44;;;;;;;4.63;4.23;;;;;;;-12.55;51.60;103154.75;457305;113;922455;-74
2023/01/11 01:59:51;;;;;;;3.82;3.46;;;;;;;-12.56;51.62;103167.02;457078;113;922622;-72
2023/01/11 02:00:54;;;;;;;3.89;3.58;;;;;;;-12.55;51.60;103158.25;457169;114;922821;-69
2023/01/11 02:02:00;;;;;;;3.12;2.84;;;;;;;-12.55;51.72;103165.26;459250;114;922497;-68
2023/01/11 02:03:03;;;;;;;3.66;3.33;;;;;;;-12.56;51.67;103156.50;465043;114;922588;-69
2023/01/11 02:04:18;;;;;;;3.27;2.97;;;;;;;-12.57;51.56;103165.29;462390;114;922577;-68
2023/01/11 02:05:21;;;;;;;4.25;3.58;;;;;;;-12.58;51.57;103158.28;453732;114;922662;-69
2023/01/11 02:06:24;;;;;;;3.98;3.41;;;;;;;-12.58;51.70;103162.66;465405;114;922426;-69
2023/01/11 02:07:33;;;;;;;4.30;3.89;;;;;;;-12.58;51.60;103160.03;463531;114;922966;-68
2023/01/11 02:08:39;;;;;;;7.70;3.82;;;;;;;-12.59;51.73;103164.41;464970;113;922637;-67
2023/01/11 02:09:52;;;;;;;3.46;3.16;;;;;;;-12.59;51.71;103164.41;462385;114;922854;-68
2023/01/11 02:10:55;;;;;;;3.71;3.33;;;;;;;-12.59;51.70;103167.03;459737;114;923094;-68
2023/01/11 02:11:59;;;;;;;3.33;3.01;;;;;;;-12.59;51.76;103166.16;457168;116;922498;-68
2023/01/11 02:13:09;;;;;;;3.74;2.88;;;;;;;-12.60;51.79;103160.02;460557;114;930494;-68
2023/01/11 02:14:15;;;;;;;3.67;3.28;;;;;;;-12.58;51.74;103165.28;464505;114;922412;-68
2023/01/11 02:15:21;;;;;;;3.36;3.02;;;;;;;-12.57;51.91;103165.29;462223;114;922779;-68
2023/01/11 02:16:24;;;;;;;3.81;3.48;;;;;;;-12.54;51.90;103159.13;461071;114;922543;-68
2023/01/11 02:17:27;;;;;;;4.20;3.81;;;;;;;-12.53;51.79;103167.02;462250;114;922662;-68
2023/01/11 02:18:30;;;;;;;3.69;3.29;;;;;;;-12.52;51.90;103160.89;456736;116;922941;-68
2023/01/11 02:20:07;;;;;;;3.42;3.12;;;;;;;-12.51;51.87;103162.61;458519;114;922570;-69
2023/01/11 02:21:16;;;;;;;3.81;2.97;;;;;;;-12.49;51.75;103162.61;460489;114;922647;-67
2023/01/11 02:22:32;;;;;;;3.23;2.93;;;;;;;-12.49;51.88;103155.61;460974;115;922561;-68
2023/01/11 02:23:59;;;;;;;3.04;2.77;;;;;;;-12.48;51.78;103159.98;458301;115;922510;-69
2023/01/11 02:25:08;;;;;;;3.63;3.13;;;;;;;-12.48;51.80;103153.86;456415;115;922859;-71
2023/01/11 02:26:31;;;;;;;2.87;2.63;;;;;;;-12.47;51.96;103153.86;453595;117;922728;-69
2023/01/11 02:27:47;;;;;;;3.13;2.76;;;;;;;-12.45;51.87;103154.70;453087;117;922485;-68
2023/01/11 02:29:05;;;;;;;3.44;2.63;;;;;;;-12.43;51.93;103158.22;444388;118;922602;-69
2023/01/11 02:30:21;;;;;;;3.28;2.91;;;;;;;-12.43;51.86;103155.59;455827;115;922530;-68
2023/01/11 02:31:33;;;;;;;2.62;2.42;;;;;;;-12.43;51.96;103163.47;454986;115;922451;-69
2023/01/11 02:32:45;;;;;;;3.33;3.01;;;;;;;-12.42;51.98;103165.22;459837;115;922566;-68
2023/01/11 02:33:57;;;;;;;3.06;2.82;;;;;;;-12.41;51.96;103152.96;454531;115;922520;-68
2023/01/11 02:35:09;;;;;;;3.21;2.82;;;;;;;-12.41;51.87;103163.48;455519;115;922654;-67
2023/01/11 02:36:16;;;;;;;3.82;3.40;;;;;;;-12.42;51.71;103159.09;456310;114;922659;-69
2023/01/11 02:37:38;;;;;;;3.20;2.90;;;;;;;-12.42;51.87;103151.20;454463;115;922740;-68
2023/01/11 02:39:02;;;;;;;3.94;3.58;;;;;;;-12.41;51.91;103156.47;458421;114;922641;-66
2023/01/11 02:40:27;;;;;;;3.39;3.09;;;;;;;-12.40;51.89;103155.56;452111;117;922606;-68
2023/01/11 02:45:00;;;;;;;3.63;3.22;;;;;;;-12.42;51.75;103159.97;444108;119;922525;-68
2023/01/11 02:45:46;;;;;;;8.53;3.01;;;;;;;-12.42;51.84;103157.34;441523;118;922562;-67
2023/01/11 02:46:53;;;;;;;2.89;2.44;;;;;;;-12.44;51.67;103158.21;441791;120;922545;-67
2023/01/11 02:48:02;;;;;;;2.82;2.59;;;;;;;-12.47;51.65;103152.98;441507;119;922640;-68
2023/01/11 02:49:36;;;;;;;3.07;2.77;;;;;;;-12.48;51.68;103167.88;439938;119;923068;-70
2023/01/11 02:50:48;;;;;;;3.43;2.45;;;;;;;-12.48;51.71;103149.48;438804;119;922657;-69
2023/01/11 02:51:57;;;;;;;3.46;2.47;;;;;;;-12.49;51.66;103163.49;437293;121;923041;-69
2023/01/11 02:53:07;;;;;;;3.33;2.74;;;;;;;-12.50;51.63;103159.11;439204;119;922582;-68
2023/01/11 02:54:11;;;;;;;2.67;2.47;;;;;;;-12.51;51.75;103151.25;438019;119;922780;-68
2023/01/11 02:55:17;;;;;;;3.57;3.11;;;;;;;-12.50;51.65;103163.48;442556;119;922543;-68
2023/01/11 02:56:27;;;;;;;4.05;3.23;;;;;;;-12.49;51.65;103158.23;444268;117;922915;-67
2023/01/11 02:57:33;;;;;;;2.83;2.62;;;;;;;-12.47;51.62;103147.73;440012;119;922891;-69
2023/01/11 02:58:39;;;;;;;3.69;2.69;;;;;;;-12.45;51.71;103154.70;439714;119;922599;-68
2023/01/11 02:59:44;;;;;;;2.40;2.20;;;;;;;-12.45;51.57;103157.34;437202;120;922691;-68
2023/01/11 03:00:48;;;;;;;3.04;2.59;;;;;;;-12.43;51.54;103162.59;438777;119;922519;-67
2023/01/11 03:01:54;;;;;;;2.59;2.10;;;;;;;-12.43;51.52;103152.08;437920;119;922556;-68
2023/01/11 03:03:15;;;;;;;3.17;2.82;;;;;;;-12.42;51.49;103154.71;436259;121;922522;-66
2023/01/11 03:04:31;;;;;;;;;;;;;;;-12.40;51.53;103152.05;446033;119;922435;-69
2023/01/11 03:05:37;;;;;;;2.91;2.53;;;;;;;-12.42;51.35;103161.72;452322;117;922593;-68
2023/01/11 03:06:40;;;;;;;3.10;2.48;;;;;;;-12.46;51.50;103166.13;452580;115;922886;-68
2023/01/11 03:07:47;;;;;;;2.69;2.47;;;;;;;-12.47;51.60;103156.48;444594;119;922388;-68
2023/01/11 03:09:13;;;;;;;3.49;2.36;;;;;;;-12.36;51.56;103159.07;468469;110;946847;-68
2023/01/11 03:10:37;;;;;;;3.87;2.82;;;;;;;-12.48;51.42;103159.98;456894;114;922658;-68
2023/01/11 03:13:41;;;;;;;2.59;2.39;;;;;;;-12.51;51.45;103162.61;456049;116;922718;-66
2023/01/11 03:14:51;;;;;;;2.92;2.44;;;;;;;-12.51;51.52;103159.14;455133;116;922535;-68
2023/01/11 03:16:07;;;;;;;2.95;2.62;;;;;;;-12.50;51.61;103159.11;453050;116;923003;-68
2023/01/11 03:17:26;;;;;;;4.21;2.57;;;;;;;-12.52;51.47;103163.52;455075;116;922570;-68
2023/01/11 03:18:32;;;;;;;3.94;2.78;;;;;;;-12.53;51.58;103158.26;455718;115;922684;-68
2023/01/11 03:19:48;;;;;;;3.39;2.64;;;;;;;-12.53;51.50;103164.39;455214;115;922897;-69
2023/01/11 03:21:06;;;;;;;2.98;2.66;;;;;;;-12.51;51.55;103162.61;456619;116;922468;-69
2023/01/11 03:22:13;;;;;;;3.37;3.07;;;;;;;-12.49;51.56;103166.13;455849;116;922984;-68
2023/01/11 03:23:22;;;;;;;3.22;2.84;;;;;;;-12.46;51.55;103167.88;456164;115;922850;-69
2023/01/11 03:24:41;;;;;;;3.44;2.30;;;;;;;-12.44;51.66;103166.97;458318;115;922517;-67
2023/01/11 03:26:15;;;;;;;2.81;2.56;;;;;;;-12.42;51.53;103164.34;453081;115;922900;-69
2023/01/11 03:27:31;;;;;;;2.78;2.54;;;;;;;-12.39;51.62;103165.20;452598;114;922644;-68
2023/01/11 03:28:40;;;;;;;3.55;2.55;;;;;;;-12.39;51.57;103161.69;454270;116;922781;-69
2023/01/11 03:30:05;;;;;;;2.78;2.26;;;;;;;-12.40;51.49;103159.94;454696;116;922965;-68
2023/01/11 03:31:23;;;;;;;3.27;2.81;;;;;;;-12.40;51.44;103155.56;455636;115;923346;-68
2023/01/11 03:32:36;;;;;;;3.68;2.53;;;;;;;-12.40;51.42;103152.05;456351;116;922990;-68
2023/01/11 03:33:51;;;;;;;3.62;2.70;;;;;;;-12.41;51.41;103155.59;453220;116;922544;-68
2023/01/11 03:35:01;;;;;;;3.51;3.08;;;;;;;-12.42;51.40;103154.71;455973;116;922924;-68
2023/01/11 03:36:16;;;;;;;3.93;3.39;;;;;;;-12.43;51.50;103155.59;448654;117;922845;-68
2023/01/11 03:37:23;;;;;;;2.76;2.56;;;;;;;-12.42;51.47;103154.71;440821;118;922817;-67
2023/01/11 03:38:40;;;;;;;4.08;2.21;;;;;;;-12.30;51.44;103148.53;475711;110;946801;-67
2023/01/11 03:39:46;;;;;;;4.19;2.93;;;;;;;-12.43;51.32;103145.08;463450;114;923116;-69
2023/01/11 03:40:53;;;;;;;2.89;2.36;;;;;;;-12.43;51.41;103150.33;456349;115;922845;-69
2023/01/11 03:41:59;;;;;;;2.93;2.69;;;;;;;-12.42;51.39;103145.95;453033;115;922649;-68
2023/01/11 03:43:11;;;;;;;3.84;3.23;;;;;;;-12.40;51.30;103154.69;449493;118;922721;-69
2023/01/11 03:44:17;;;;;;;3.53;3.23;;;;;;;-12.38;51.42;103155.56;454995;115;922454;-70
2023/01/11 03:45:20;;;;;;;3.13;2.65;;;;;;;-12.37;51.40;103152.94;450805;116;922619;-66
2023/01/11 03:46:27;;;;;;;2.79;2.58;;;;;;;-12.36;51.40;103149.44;456160;114;922623;-69
2023/01/11 03:47:33;;;;;;;9.11;3.94;;;;;;;-12.35;51.24;103142.42;450814;115;922671;-69
2023/01/11 03:48:39;;;;;;;4.12;3.25;;;;;;;-12.34;51.19;103150.28;456561;115;922535;-69
2023/01/11 03:49:57;;;;;;;3.14;2.90;;;;;;;-12.33;51.16;103148.53;457084;115;922550;-69
2023/01/11 03:51:03;;;;;;;3.93;3.32;;;;;;;-12.33;51.24;103144.15;446901;117;923156;-68
2023/01/11 03:52:10;;;;;;;4.40;3.23;;;;;;;-12.34;51.24;103147.66;441902;117;922636;-68
2023/01/11 03:53:17;;;;;;;5.16;2.97;;;;;;;-12.32;51.15;103159.05;454534;115;922648;-68
2023/01/11 03:54:23;;;;;;;3.24;2.73;;;;;;;-12.32;51.10;103156.41;457300;116;922581;-69
2023/01/11 03:55:29;;;;;;;2.94;2.55;;;;;;;-12.32;51.02;103155.54;457197;114;923312;-68
2023/01/11 03:57:05;;;;;;;3.06;2.76;;;;;;;-12.32;50.95;103152.91;456158;114;923386;-69
2023/01/11 03:58:09;;;;;;;3.18;2.91;;;;;;;-12.33;50.99;103156.41;456253;116;922699;-69
2023/01/11 03:59:12;;;;;;;3.06;2.77;;;;;;;-12.33;50.99;103157.29;456499;115;922571;-69
2023/01/11 04:00:15;;;;;;;3.16;2.77;;;;;;;-12.32;51.00;103160.80;461338;115;922586;-68
2023/01/11 04:01:18;;;;;;;3.21;2.83;;;;;;;-12.32;51.10;103156.41;457809;115;922870;-69
2023/01/11 04:02:25;;;;;;;4.13;2.92;;;;;;;-12.31;51.11;103150.28;451659;114;930452;-69
2023/01/11 04:03:28;;;;;;;2.88;2.64;;;;;;;-12.29;50.97;103145.88;451502;115;922507;-69
2023/01/11 04:04:31;;;;;;;3.13;2.83;;;;;;;-12.27;51.07;103152.01;459874;115;922361;-69
2023/01/11 04:05:35;;;;;;;3.12;2.69;;;;;;;-12.26;51.06;103150.25;456143;115;922761;-70
2023/01/11 04:06:38;;;;;;;2.69;2.44;;;;;;;-12.26;50.88;103159.02;456955;114;922519;-68
2023/01/11 04:07:41;;;;;;;3.71;3.10;;;;;;;-12.26;50.97;103156.39;449644;117;922493;-69
2023/01/11 04:08:44;;;;;;;3.31;2.71;;;;;;;-12.24;50.85;103158.14;457667;115;922453;-69
2023/01/11 04:09:47;;;;;;;5.62;2.95;;;;;;;-12.25;50.84;103159.90;457307;115;922806;-69
2023/01/11 04:10:50;;;;;;;2.82;2.58;;;;;;;-12.23;50.79;103163.38;455969;114;922596;-68
2023/01/11 04:11:53;;;;;;;3.38;3.08;;;;;;;-12.22;50.83;103167.76;453131;114;923031;-69
2023/01/11 04:12:56;;;;;;;3.27;2.76;;;;;;;-12.22;50.88;103161.63;455243;116;922503;-68
2023/01/11 04:14:00;;;;;;;6.50;2.66;;;;;;;-12.21;50.84;103158.99;455138;116;922696;-68
2023/01/11 04:15:04;;;;;;;3.84;3.09;;;;;;;-12.19;50.92;103157.24;445784;118;922615;-69
2023/01/11 04:16:07;;;;;;;2.94;2.68;;;;;;;-12.18;50.91;103151.08;448056;116;922697;-68
2023/01/11 04:17:10;;;;;;;3.61;2.99;;;;;;;-12.16;50.84;103153.70;454913;114;930288;-68
2023/01/11 04:18:13;;;;;;;3.42;3.14;;;;;;;-12.15;50.84;103155.46;457892;115;923416;-69
2023/01/11 04:19:16;;;;;;;3.89;3.22;;;;;;;-12.13;50.73;103157.22;457995;115;922782;-69
2023/01/11 04:20:20;;;;;;;3.46;2.89;;;;;;;-12.11;50.68;103157.19;450127;115;922596;-69
2023/01/11 04:21:23;;;;;;;3.52;2.94;;;;;;;-12.10;50.80;103153.68;457241;115;922451;-70
2023/01/11 04:22:25;;;;;;;3.48;3.04;;;;;;;-12.09;50.70;103158.94;454655;115;922522;-70
2023/01/11 04:23:29;;;;;;;3.06;2.74;;;;;;;-12.08;50.78;103151.92;448477;115;922706;-68
2023/01/11 04:24:32;;;;;;;3.25;2.95;;;;;;;-12.07;50.70;103148.42;451200;115;922636;-68
2023/01/11 04:25:35;;;;;;;3.27;2.97;;;;;;;-12.08;50.52;103147.55;456153;115;922562;-69
2023/01/11 04:26:39;;;;;;;3.49;2.89;;;;;;;-12.07;50.51;103151.05;456404;114;923050;-69
2023/01/11 04:27:41;;;;;;;3.47;3.17;;;;;;;-12.08;50.46;103149.30;452540;116;922577;-69
2023/01/11 04:28:45;;;;;;;5.21;3.35;;;;;;;-12.09;50.58;103148.42;456143;116;922915;-70
2023/01/11 04:29:48;;;;;;;4.39;3.50;;;;;;;-12.08;50.59;103149.30;449141;116;922512;-69
2023/01/11 04:30:51;;;;;;;3.53;3.00;;;;;;;-12.09;50.56;103151.05;454026;115;922500;-69
2023/01/11 04:31:54;;;;;;;3.28;2.98;;;;;;;-12.09;50.45;103147.55;454490;116;922865;-68
2023/01/11 04:32:58;;;;;;;3.32;3.05;;;;;;;-12.10;50.57;103146.67;454959;115;922540;-68
2023/01/11 04:34:01;;;;;;;3.59;2.74;;;;;;;-12.10;50.47;103144.03;460341;115;922912;-68
2023/01/11 04:35:04;;;;;;;3.95;2.52;;;;;;;-12.10;50.57;103141.41;459132;115;922543;-69
2023/01/11 04:36:10;;;;;;;2.95;2.69;;;;;;;-12.10;50.57;103141.41;457400;114;922616;-69
2023/01/11 04:37:13;;;;;;;3.98;2.89;;;;;;;-12.09;50.55;103139.66;456434;114;922940;-69
2023/01/11 04:38:16;;;;;;;2.96;2.69;;;;;;;-12.08;50.56;103136.15;454936;116;922504;-69
2023/01/11 04:39:19;;;;;;;6.74;2.79;;;;;;;-12.07;50.44;103145.79;452680;115;922611;-69
2023/01/11 04:40:23;;;;;;;3.02;2.39;;;;;;;-12.06;50.52;103134.36;446275;119;922584;-69
2023/01/11 04:42:47;;;;;;;3.30;2.74;;;;;;;-12.08;50.42;103123.00;447020;115;922623;-69
2023/01/11 04:43:53;;;;;;;4.42;3.59;;;;;;;-12.11;50.26;103136.14;453027;116;922462;-69
2023/01/11 04:44:56;;;;;;;5.14;3.85;;;;;;;-12.13;50.39;103135.30;450483;115;922470;-68
2023/01/11 04:45:59;;;;;;;6.33;3.92;;;;;;;-12.13;50.43;103137.93;461890;115;923244;-70
2023/01/11 04:47:02;;;;;;;4.40;4.01;;;;;;;-12.12;50.44;103131.77;457391;115;922555;-68
2023/01/11 04:48:05;;;;;;;5.33;3.96;;;;;;;-12.13;50.43;103141.44;458163;115;922604;-69
2023/01/11 04:49:08;;;;;;;6.11;3.64;;;;;;;-12.12;50.45;103142.28;453525;115;922559;-70
2023/01/11 04:50:12;;;;;;;5.08;3.24;;;;;;;-12.11;50.42;103138.78;454641;116;922941;-69
2023/01/11 04:51:16;;;;;;;3.26;2.96;;;;;;;-12.12;50.32;103142.28;454936;116;922973;-69
2023/01/11 04:52:19;;;;;;;2.98;2.56;;;;;;;-12.11;50.30;103134.39;447208;115;922477;-68
2023/01/11 04:53:22;;;;;;;4.07;3.12;;;;;;;-12.12;50.25;103142.28;453500;115;923003;-68
2023/01/11 04:54:25;;;;;;;2.83;2.33;;;;;;;-12.13;50.37;103135.30;452542;117;930475;-67
2023/01/11 04:55:28;;;;;;;3.44;2.94;;;;;;;-12.14;50.30;103150.20;449975;117;923001;-70
2023/01/11 04:56:31;;;;;;;2.89;2.67;;;;;;;-12.13;50.41;103149.33;451995;117;922520;-71
2023/01/11 04:57:34;;;;;;;4.17;3.12;;;;;;;-12.12;50.30;103152.80;430289;121;922588;-69
2023/01/11 04:58:37;;;;;;;3.57;2.76;;;;;;;-12.12;50.43;103155.43;441550;119;922747;-68
2023/01/11 04:59:41;;;;;;;5.29;2.80;;;;;;;-12.10;50.40;103135.27;440454;119;922614;-69
2023/01/11 05:00:44;;;;;;;3.53;3.03;;;;;;;-12.10;50.30;103149.30;442604;119;922658;-68
2023/01/11 05:01:47;;;;;;;6.48;2.69;;;;;;;-12.09;50.40;103151.05;443643;117;922673;-69
2023/01/11 05:02:50;;;;;;;3.19;2.64;;;;;;;-12.08;50.29;103146.67;443785;119;923108;-69
2023/01/11 05:03:54;;;;;;;3.86;3.27;;;;;;;-12.07;50.41;103151.05;437398;119;923285;-69
2023/01/11 05:04:57;;;;;;;4.83;3.11;;;;;;;-12.08;50.30;103147.55;436378;121;922579;-68
2023/01/11 05:06:00;;;;;;;4.53;3.73;;;;;;;-12.06;50.44;103143.12;436581;119;922490;-68
2023/01/11 05:07:03;;;;;;;3.07;2.59;;;;;;;-12.06;50.30;103142.25;439178;119;923390;-70
2023/01/11 05:08:07;;;;;;;4.31;3.11;;;;;;;-12.05;50.39;103151.89;444986;119;922520;-68
2023/01/11 05:09:15;;;;;;;5.96;3.47;;;;;;;-12.05;50.40;103147.52;442736;119;922526;-69
2023/01/11 05:10:18;;;;;;;3.36;3.00;;;;;;;-12.02;50.37;103144.01;444638;119;922709;-69
2023/01/11 05:11:23;;;;;;;3.64;3.29;;;;;;;-12.03;50.24;103151.02;452503;117;922589;-70
2023/01/11 05:12:26;;;;;;;3.73;3.39;;;;;;;-12.04;50.27;103154.52;445752;117;922609;-69
2023/01/11 05:13:40;;;;;;;4.16;3.75;;;;;;;-12.04;50.36;103141.37;446306;118;922998;-71
2023/01/11 05:14:43;;;;;;;4.66;3.43;;;;;;;-12.05;50.26;103147.52;442857;117;922542;-70
2023/01/11 05:15:47;;;;;;;3.89;3.37;;;;;;;-12.05;50.39;103147.52;444621;119;922778;-69
2023/01/11 05:16:50;;;;;;;4.80;3.39;;;;;;;-12.05;50.39;103147.52;443231;119;922528;-69